Time;durP1;ratioP1;P1;durP2;ratioP2;P2;SDS_P1;SDS_P2;PMS_P1;PMS_P2;Temp;Humidity;BMP_temperature;BMP_pressure;BME280_temperature;BME280_humidity;BME280_pressure;Samples;Min_cycle;Max_cycle;Signal;HPM_P1;HPM_P2
2022/05/17 00:00:47;;;;;;;20.45;14.57;;;16.30;99.90;;;;;;5062799;28;20285;-71
2022/05/17 00:03:14;;;;;;;22.20;15.25;;;16.40;99.90;;;;;;5074365;28;20217;-71
2022/05/17 00:05:43;;;;;;;20.52;15.05;;;16.30;99.90;;;;;;5073736;28;20277;-71
2022/05/17 00:08:10;;;;;;;21.33;15.20;;;16.30;99.90;;;;;;5071180;28;20198;-71
2022/05/17 00:10:37;;;;;;;25.10;15.93;;;16.30;99.90;;;;;;5073557;28;20202;-71
2022/05/17 00:13:04;;;;;;;21.45;14.93;;;16.20;99.90;;;;;;5073383;28;20664;-72
2022/05/17 00:15:32;;;;;;;18.42;14.38;;;16.30;99.90;;;;;;5070214;28;20218;-71
2022/05/17 00:17:59;;;;;;;23.17;15.48;;;16.20;99.90;;;;;;5073384;28;20206;-71
2022/05/17 00:20:27;;;;;;;20.90;14.68;;;16.30;99.90;;;;;;5060157;28;20209;-72
2022/05/17 00:22:55;;;;;;;20.33;15.60;;;16.30;99.90;;;;;;5074108;28;20213;-67
2022/05/17 00:25:24;;;;;;;20.42;15.40;;;16.30;99.90;;;;;;5073475;28;20198;-68
2022/05/17 00:27:51;;;;;;;21.65;15.15;;;16.30;99.90;;;;;;5061814;28;20622;-68
2022/05/17 00:30:18;;;;;;;22.52;15.43;;;16.20;99.90;;;;;;5074213;28;20208;-68
2022/05/17 00:32:45;;;;;;;20.70;16.15;;;16.00;99.90;;;;;;5073858;28;20656;-68
2022/05/17 00:35:12;;;;;;;20.90;14.85;;;16.10;99.90;;;;;;5059538;28;20229;-68
2022/05/17 00:37:39;;;;;;;23.02;15.23;;;16.00;99.90;;;;;;5064302;28;20198;-68
2022/05/17 00:40:09;;;;;;;21.55;15.68;;;16.10;99.90;;;;;;5071454;28;20202;-68
2022/05/17 00:42:36;;;;;;;21.30;14.95;;;16.20;99.90;;;;;;5072985;28;20194;-68
2022/05/17 00:45:03;;;;;;;22.42;15.07;;;16.20;99.90;;;;;;5066001;28;20217;-68
2022/05/17 00:47:33;;;;;;;21.75;15.27;;;16.20;99.90;;;;;;5072573;28;20680;-68
2022/05/17 00:50:05;;;;;;;21.92;15.63;;;16.10;99.90;;;;;;5071395;28;20558;-68
2022/05/17 00:52:37;;;;;;;21.17;15.32;;;16.00;99.90;;;;;;5055664;28;20642;-68
2022/05/17 00:55:10;;;;;;;23.83;16.60;;;16.10;99.90;;;;;;5067597;28;20649;-68
2022/05/17 00:57:43;;;;;;;20.88;16.30;;;16.00;99.90;;;;;;5067081;28;20198;-68
2022/05/17 01:00:13;;;;;;;24.08;17.63;;;16.00;99.90;;;;;;5062923;28;20213;-68
2022/05/17 01:02:41;;;;;;;19.03;15.03;;;15.90;99.90;;;;;;5060153;28;20194;-68
2022/05/17 01:05:09;;;;;;;25.35;16.08;;;15.90;99.90;;;;;;5060792;28;20571;-68
2022/05/17 01:07:41;;;;;;;22.73;16.60;;;15.90;99.90;;;;;;5066238;28;20680;-68
2022/05/17 01:10:11;;;;;;;24.53;17.37;;;15.80;99.90;;;;;;5058159;28;20207;-68
2022/05/17 01:12:39;;;;;;;21.73;16.13;;;15.80;99.90;;;;;;5055681;28;20202;-68
2022/05/17 01:15:07;;;;;;;24.70;18.27;;;15.80;99.90;;;;;;5053789;28;20210;-68
2022/05/17 01:17:37;;;;;;;23.77;18.40;;;15.80;99.90;;;;;;5054715;28;20231;-68
2022/05/17 01:20:07;;;;;;;25.33;17.90;;;15.80;99.90;;;;;;5068252;28;20209;-68
2022/05/17 01:22:35;;;;;;;23.15;18.00;;;15.90;99.90;;;;;;5077402;28;20660;-68
2022/05/17 01:25:01;;;;;;;21.67;17.57;;;15.90;99.90;;;;;;5072278;28;20651;-68
2022/05/17 01:27:35;;;;;;;26.75;17.95;;;15.90;99.90;;;;;;5072275;28;20568;-68
2022/05/17 01:30:01;;;;;;;24.83;18.10;;;15.90;99.90;;;;;;5072493;28;20210;-68
2022/05/17 01:32:28;;;;;;;22.17;18.17;;;15.90;99.90;;;;;;5059343;28;20202;-68
2022/05/17 01:34:55;;;;;;;26.83;16.60;;;15.90;99.90;;;;;;5072181;28;20206;-68
2022/05/17 01:37:22;;;;;;;23.70;17.27;;;15.90;99.90;;;;;;5072384;28;20224;-68
2022/05/17 01:39:50;;;;;;;24.87;17.83;;;15.90;99.90;;;;;;5071423;28;20581;-68
2022/05/17 01:42:17;;;;;;;21.50;17.10;;;15.90;99.90;;;;;;5056997;28;20661;-68
2022/05/17 01:44:45;;;;;;;26.57;17.97;;;15.80;99.90;;;;;;5059991;28;20201;-68
2022/05/17 01:47:13;;;;;;;21.30;16.00;;;15.80;99.90;;;;;;5071605;28;20198;-68
2022/05/17 01:49:39;;;;;;;22.05;16.75;;;15.80;99.90;;;;;;5069171;28;20224;-68
2022/05/17 01:52:07;;;;;;;22.33;16.90;;;15.80;99.90;;;;;;5072319;28;20202;-68
2022/05/17 01:54:34;;;;;;;23.20;16.33;;;15.80;99.90;;;;;;5072135;28;20194;-68
2022/05/17 01:57:03;;;;;;;23.42;16.20;;;15.80;99.90;;;;;;5068091;28;20227;-68
2022/05/17 01:59:29;;;;;;;23.17;16.10;;;15.80;99.90;;;;;;5062238;28;20198;-68
2022/05/17 02:01:56;;;;;;;22.50;17.08;;;15.80;99.90;;;;;;5072015;28;20674;-68
2022/05/17 02:04:23;;;;;;;22.60;14.80;;;15.70;99.90;;;;;;5068501;28;20234;-68
2022/05/17 02:06:50;;;;;;;21.25;15.68;;;15.70;99.90;;;;;;5068926;28;20198;-68
2022/05/17 02:09:17;;;;;;;19.45;15.38;;;15.70;99.90;;;;;;5071156;28;20198;-68
2022/05/17 02:11:43;;;;;;;23.20;15.70;;;15.70;99.90;;;;;;5064727;28;20198;-68
2022/05/17 02:14:12;;;;;;;21.23;15.40;;;15.70;99.90;;;;;;5071794;28;20209;-68
2022/05/17 02:16:39;;;;;;;22.70;16.07;;;15.60;99.90;;;;;;5071970;28;20218;-68
2022/05/17 02:19:07;;;;;;;22.83;16.08;;;15.60;99.90;;;;;;5066874;28;20305;-68
2022/05/17 02:21:35;;;;;;;24.67;17.50;;;15.40;99.90;;;;;;5054930;28;20711;-68
2022/05/17 02:24:02;;;;;;;21.85;16.55;;;15.40;99.90;;;;;;5072048;28;20213;-68
2022/05/17 02:26:29;;;;;;;21.60;16.17;;;15.40;99.90;;;;;;5071110;28;20288;-68
2022/05/17 02:28:56;;;;;;;22.40;16.83;;;15.30;99.90;;;;;;5055838;28;20207;-68
2022/05/17 02:31:24;;;;;;;22.23;16.30;;;15.30;99.90;;;;;;5071537;28;20679;-68
2022/05/17 02:33:51;;;;;;;21.87;17.03;;;15.30;99.90;;;;;;5063558;28;20205;-68
2022/05/17 02:36:18;;;;;;;25.70;17.63;;;15.10;99.90;;;;;;5068921;28;20232;-68
2022/05/17 02:38:45;;;;;;;22.80;16.87;;;15.20;99.90;;;;;;5070264;28;20201;-68
2022/05/17 02:41:12;;;;;;;23.40;16.47;;;15.20;99.90;;;;;;5071555;28;20202;-68
2022/05/17 02:43:39;;;;;;;24.50;17.03;;;15.20;99.90;;;;;;5059696;28;20287;-68
2022/05/17 02:46:07;;;;;;;23.73;16.67;;;15.30;99.90;;;;;;5071144;28;20199;-68
2022/05/17 02:48:35;;;;;;;22.70;16.83;;;15.20;99.90;;;;;;5071194;28;20683;-68
2022/05/17 02:51:09;;;;;;;25.83;17.23;;;15.20;99.90;;;;;;5057983;28;20657;-68
2022/05/17 02:53:36;;;;;;;20.37;16.07;;;15.20;99.90;;;;;;5060508;28;20544;-68
2022/05/17 02:56:03;;;;;;;24.20;16.67;;;15.10;99.90;;;;;;5071072;28;20202;-68
2022/05/17 02:58:30;;;;;;;21.97;16.70;;;15.10;99.90;;;;;;5071064;28;20190;-68
2022/05/17 03:00:57;;;;;;;22.27;15.83;;;15.10;99.90;;;;;;5058815;28;20213;-68
2022/05/17 03:03:24;;;;;;;22.83;17.17;;;15.20;99.90;;;;;;5071120;28;20204;-68
2022/05/17 03:05:52;;;;;;;27.70;17.27;;;15.20;99.90;;;;;;5071321;28;20206;-68
2022/05/17 03:08:19;;;;;;;25.97;17.83;;;15.20;99.90;;;;;;5071233;28;20224;-68
2022/05/17 03:10:46;;;;;;;23.43;17.00;;;15.20;99.90;;;;;;5053376;28;20222;-68
2022/05/17 03:13:14;;;;;;;23.83;16.73;;;15.30;99.90;;;;;;5063921;28;20204;-68
2022/05/17 03:15:41;;;;;;;22.73;16.90;;;15.20;99.90;;;;;;5067761;28;20206;-68
2022/05/17 03:18:08;;;;;;;22.50;15.83;;;15.30;99.90;;;;;;5074100;28;20249;-68
2022/05/17 03:20:35;;;;;;;23.13;16.20;;;15.20;99.90;;;;;;5073382;28;20281;-68
2022/05/17 03:23:03;;;;;;;23.37;15.40;;;15.20;99.90;;;;;;5065718;28;20206;-68
2022/05/17 03:25:30;;;;;;;21.43;16.00;;;15.10;99.90;;;;;;5074960;28;20206;-68
2022/05/17 03:27:57;;;;;;;23.37;18.13;;;14.90;99.90;;;;;;5074694;28;20205;-68
2022/05/17 03:30:24;;;;;;;26.87;19.77;;;15.00;99.90;;;;;;5059610;28;20297;-68
2022/05/17 03:32:51;;;;;;;25.80;19.73;;;15.10;99.90;;;;;;5059591;28;20560;-68
2022/05/17 03:35:18;;;;;;;27.17;17.77;;;15.20;99.90;;;;;;5073987;28;20206;-68
2022/05/17 03:37:45;;;;;;;23.63;17.50;;;15.20;99.90;;;;;;5055130;28;20233;-68
2022/05/17 03:40:14;;;;;;;25.83;18.40;;;15.30;99.90;;;;;;5065829;28;20195;-68
2022/05/17 03:42:41;;;;;;;30.63;19.63;;;15.30;99.90;;;;;;5074486;28;20196;-65
2022/05/17 03:45:09;;;;;;;26.80;19.67;;;15.30;99.90;;;;;;5067868;28;20660;-66
2022/05/17 03:47:36;;;;;;;28.37;18.80;;;15.40;99.90;;;;;;5063962;28;20658;-65
2022/05/17 03:50:04;;;;;;;26.40;19.63;;;15.40;99.90;;;;;;5074446;28;20666;-66
2022/05/17 03:52:32;;;;;;;25.83;19.67;;;15.40;99.90;;;;;;5067465;28;20578;-65
2022/05/17 03:55:01;;;;;;;26.00;18.63;;;15.40;99.90;;;;;;5053967;28;20219;-65
2022/05/17 03:57:29;;;;;;;24.93;18.40;;;15.50;99.90;;;;;;5072142;28;20218;-66
2022/05/17 03:59:56;;;;;;;23.50;17.77;;;15.50;99.90;;;;;;5063008;28;20211;-66
2022/05/17 04:02:24;;;;;;;28.10;18.50;;;15.50;99.90;;;;;;5071729;28;20213;-66
2022/05/17 04:04:53;;;;;;;26.15;19.13;;;15.60;99.90;;;;;;5072766;28;20202;-68
2022/05/17 04:07:19;;;;;;;28.07;18.83;;;15.70;99.90;;;;;;5070571;28;20194;-67
2022/05/17 04:09:46;;;;;;;26.88;19.35;;;15.70;99.90;;;;;;5071737;28;20681;-68
2022/05/17 04:12:14;;;;;;;27.77;19.23;;;15.70;99.90;;;;;;5072650;28;20204;-66
2022/05/17 04:14:42;;;;;;;25.08;18.63;;;15.80;99.90;;;;;;5062969;28;20213;-66
2022/05/17 04:17:09;;;;;;;25.08;18.15;;;15.80;99.90;;;;;;5061093;28;20223;-66
2022/05/17 04:19:37;;;;;;;23.80;17.77;;;15.90;99.90;;;;;;5064144;28;20227;-66
2022/05/17 04:22:08;;;;;;;23.45;18.55;;;15.90;99.90;;;;;;5057341;28;20278;-66
2022/05/17 04:24:35;;;;;;;24.02;17.45;;;15.90;99.90;;;;;;5063649;28;20202;-66
2022/05/17 04:27:01;;;;;;;25.87;18.10;;;15.80;99.90;;;;;;5072436;28;20194;-66
2022/05/17 04:29:28;;;;;;;25.57;19.13;;;15.80;99.90;;;;;;5065930;28;20574;-68
2022/05/17 04:31:56;;;;;;;24.07;18.37;;;15.80;99.90;;;;;;5054287;28;20210;-68
2022/05/17 04:34:23;;;;;;;24.77;18.15;;;15.80;99.90;;;;;;5062737;28;20583;-68
2022/05/17 04:36:50;;;;;;;23.73;18.30;;;15.90;99.90;;;;;;5060934;28;20226;-68
2022/05/17 04:39:17;;;;;;;24.58;18.00;;;15.90;99.90;;;;;;5062019;28;20208;-68
2022/05/17 04:41:44;;;;;;;23.40;17.58;;;15.80;99.90;;;;;;5068041;28;20639;-68
2022/05/17 04:44:11;;;;;;;25.63;17.80;;;15.80;99.90;;;;;;5056234;28;20203;-68
2022/05/17 04:46:38;;;;;;;25.10;17.90;;;16.00;99.90;;;;;;5053047;28;20226;-68
2022/05/17 04:49:07;;;;;;;23.92;17.42;;;16.00;99.90;;;;;;5059650;28;20195;-68
2022/05/17 04:51:34;;;;;;;22.90;16.88;;;15.90;99.90;;;;;;5073733;28;20210;-68
2022/05/17 04:54:02;;;;;;;22.33;17.10;;;16.00;99.90;;;;;;5059060;28;20209;-68
2022/05/17 04:56:29;;;;;;;23.08;16.50;;;16.00;99.90;;;;;;5073059;28;20206;-68
2022/05/17 04:58:55;;;;;;;25.40;16.70;;;16.00;99.90;;;;;;5072267;28;20206;-68
2022/05/17 05:01:22;;;;;;;22.95;16.70;;;15.90;99.90;;;;;;5073519;28;20202;-68
2022/05/17 05:03:49;;;;;;;23.17;15.73;;;15.80;99.90;;;;;;5072705;28;20574;-68
2022/05/17 05:06:17;;;;;;;25.23;16.58;;;15.80;99.90;;;;;;5072994;28;20712;-68
2022/05/17 05:08:44;;;;;;;24.42;16.75;;;15.70;99.90;;;;;;5064446;28;20203;-68
2022/05/17 05:11:11;;;;;;;23.70;15.80;;;15.70;99.90;;;;;;5056477;28;20211;-68
2022/05/17 05:13:38;;;;;;;23.00;16.20;;;15.70;99.90;;;;;;5055118;28;20206;-68
2022/05/17 05:16:09;;;;;;;23.17;15.68;;;15.70;99.90;;;;;;5053654;28;20682;-68
2022/05/17 05:18:36;;;;;;;25.05;17.70;;;16.00;99.90;;;;;;5067957;28;20221;-68
2022/05/17 05:21:06;;;;;;;22.10;15.63;;;16.00;99.90;;;;;;5068437;28;20203;-68
2022/05/17 05:23:34;;;;;;;23.07;15.17;;;16.10;99.90;;;;;;5069638;28;20203;-68
2022/05/17 05:26:01;;;;;;;22.67;14.88;;;16.30;99.90;;;;;;5070066;28;20208;-68
2022/05/17 05:28:28;;;;;;;21.05;13.93;;;16.50;99.90;;;;;;5066693;28;20198;-68
2022/05/17 05:30:55;;;;;;;20.67;14.13;;;16.60;99.90;;;;;;5072573;28;20568;-68
2022/05/17 05:33:22;;;;;;;21.23;13.55;;;16.80;99.90;;;;;;5072270;28;20454;-68
2022/05/17 05:35:49;;;;;;;19.20;13.07;;;17.10;99.90;;;;;;5068390;28;20297;-68
2022/05/17 05:38:16;;;;;;;19.50;13.25;;;17.50;99.90;;;;;;5071898;28;20225;-68
2022/05/17 05:40:44;;;;;;;16.52;10.65;;;17.90;99.90;;;;;;5071810;28;20198;-68
2022/05/17 05:43:11;;;;;;;17.25;11.27;;;17.70;99.90;;;;;;5072710;28;20199;-68
2022/05/17 05:45:38;;;;;;;14.38;9.93;;;17.50;99.90;;;;;;5068922;28;20217;-68
2022/05/17 05:48:06;;;;;;;15.73;9.40;;;17.60;99.90;;;;;;5071730;28;20191;-68
2022/05/17 05:50:32;;;;;;;16.55;9.85;;;17.70;99.90;;;;;;5071741;28;20202;-68
2022/05/17 05:53:00;;;;;;;16.05;8.10;;;17.80;99.90;;;;;;5062030;28;20222;-68
2022/05/17 05:55:28;;;;;;;16.70;8.90;;;17.80;99.90;;;;;;5057891;28;20323;-68
2022/05/17 05:57:56;;;;;;;12.95;7.97;;;17.60;99.90;;;;;;5071597;28;20218;-68
2022/05/17 06:00:23;;;;;;;15.38;8.45;;;17.50;99.90;;;;;;5062570;28;20210;-68
2022/05/17 06:02:50;;;;;;;16.13;8.77;;;17.50;99.90;;;;;;5072129;28;20202;-68
2022/05/17 06:05:18;;;;;;;15.45;8.48;;;17.60;99.90;;;;;;5069272;28;20652;-67
2022/05/17 06:07:45;;;;;;;15.32;8.85;;;17.60;99.90;;;;;;5072561;28;20221;-67
2022/05/17 06:10:13;;;;;;;14.57;8.95;;;17.70;99.90;;;;;;5069188;28;20198;-67
2022/05/17 06:12:40;;;;;;;18.58;10.38;;;17.80;99.90;;;;;;5056217;28;20190;-67
2022/05/17 06:15:10;;;;;;;15.40;8.27;;;17.90;99.90;;;;;;5071128;28;20203;-68
2022/05/17 06:17:38;;;;;;;14.35;9.35;;;18.00;99.90;;;;;;5070781;28;20214;-68
2022/05/17 06:20:06;;;;;;;14.98;9.32;;;17.80;99.90;;;;;;5066172;28;20210;-68
2022/05/17 06:22:34;;;;;;;16.08;8.43;;;17.90;99.90;;;;;;5071406;28;20198;-68
2022/05/17 06:25:01;;;;;;;14.85;8.32;;;18.30;99.90;;;;;;5072171;28;20238;-67
2022/05/17 06:27:27;;;;;;;17.17;8.52;;;18.60;99.90;;;;;;5061321;28;20642;-68
2022/05/17 06:29:54;;;;;;;13.30;7.10;;;18.20;99.90;;;;;;5071221;28;20202;-67
2022/05/17 06:32:22;;;;;;;14.30;7.90;;;18.30;99.90;;;;;;5053060;28;20202;-67
2022/05/17 06:34:49;;;;;;;16.58;7.90;;;18.00;99.90;;;;;;5050539;28;20226;-68
2022/05/17 06:37:17;;;;;;;14.88;8.13;;;18.00;99.90;;;;;;5053038;28;20716;-66
2022/05/17 06:39:44;;;;;;;13.95;7.70;;;18.00;99.90;;;;;;5050920;28;20214;-66
2022/05/17 06:42:11;;;;;;;14.88;7.18;;;18.00;99.90;;;;;;5058566;28;20199;-67
2022/05/17 06:44:39;;;;;;;15.27;7.15;;;18.00;99.90;;;;;;5051133;28;20203;-66
2022/05/17 06:47:06;;;;;;;19.70;7.10;;;18.00;99.90;;;;;;5066298;28;20199;-66
2022/05/17 06:49:37;;;;;;;16.10;7.45;;;18.00;99.90;;;;;;5067152;28;20274;-66
2022/05/17 06:52:06;;;;;;;15.68;6.80;;;18.00;99.90;;;;;;5075178;28;20579;-66
2022/05/17 06:54:33;;;;;;;13.18;7.43;;;17.90;99.90;;;;;;5066178;28;20197;-66
2022/05/17 06:57:04;;;;;;;14.90;7.75;;;18.00;99.90;;;;;;5073110;28;20559;-66
2022/05/17 06:59:31;;;;;;;14.32;7.20;;;18.20;99.90;;;;;;5069118;28;20234;-72
2022/05/17 07:01:59;;;;;;;16.10;7.60;;;18.10;99.90;;;;;;5067664;28;20205;-77
2022/05/17 07:04:26;;;;;;;16.02;8.02;;;18.30;99.90;;;;;;5074982;28;20194;-77
2022/05/17 07:06:55;;;;;;;14.48;7.38;;;18.30;99.90;;;;;;5065695;28;20218;-76
2022/05/17 07:09:22;;;;;;;16.48;7.88;;;18.40;99.90;;;;;;5066415;28;20205;-76
2022/05/17 07:14:34;;;;;;;15.07;7.65;;;18.60;99.90;;;;;;5073755;28;20267;-76
2022/05/17 07:17:01;;;;;;;13.48;7.00;;;18.70;99.90;;;;;;5074174;28;20209;-73
2022/05/17 07:19:28;;;;;;;11.75;5.50;;;18.60;99.90;;;;;;5067043;28;20230;-72
2022/05/17 07:21:56;;;;;;;11.50;6.53;;;18.80;99.90;;;;;;5054960;28;20669;-72
2022/05/17 07:24:23;;;;;;;13.20;6.18;;;18.70;99.90;;;;;;5071355;28;20209;-72
2022/05/17 07:26:49;;;;;;;10.75;5.40;;;18.60;99.90;;;;;;5074344;28;20576;-72
2022/05/17 07:29:16;;;;;;;16.15;5.30;;;18.70;99.90;;;;;;5069863;28;20195;-72
2022/05/17 07:31:43;;;;;;;14.95;5.63;;;18.60;99.90;;;;;;5075401;28;20202;-72
2022/05/17 07:34:10;;;;;;;11.95;5.75;;;18.80;99.90;;;;;;5069425;28;20207;-72
2022/05/17 07:36:37;;;;;;;13.85;5.45;;;18.90;99.90;;;;;;5055279;28;20669;-73
2022/05/17 07:39:06;;;;;;;13.20;6.07;;;19.10;99.90;;;;;;5065899;28;20224;-73
2022/05/17 07:41:33;;;;;;;11.95;6.03;;;19.10;99.90;;;;;;5074398;28;20281;-73
2022/05/17 07:44:00;;;;;;;12.32;5.65;;;19.20;99.90;;;;;;5071135;28;20211;-72
2022/05/17 07:46:26;;;;;;;9.80;5.93;;;19.20;99.90;;;;;;5055081;28;20199;-72
2022/05/17 07:48:53;;;;;;;10.07;5.53;;;19.30;99.90;;;;;;5054189;28;20664;-73
2022/05/17 07:51:20;;;;;;;11.60;5.38;;;19.10;93.60;;;;;;5054981;28;20252;-73
2022/05/17 07:53:47;;;;;;;12.60;5.30;;;19.20;99.90;;;;;;5054358;28;20213;-73
2022/05/17 07:56:15;;;;;;;11.80;6.05;;;19.20;99.90;;;;;;5054671;28;20209;-73
2022/05/17 07:58:43;;;;;;;10.02;5.05;;;19.20;99.90;;;;;;5053820;28;20234;-73
2022/05/17 08:01:10;;;;;;;11.27;5.65;;;19.30;99.90;;;;;;5054761;28;20298;-73
2022/05/17 08:03:36;;;;;;;12.45;5.75;;;19.40;99.90;;;;;;5053938;28;20297;-73
2022/05/17 08:06:03;;;;;;;16.13;5.88;;;19.50;99.90;;;;;;5054670;28;20225;-73
2022/05/17 08:08:30;;;;;;;13.02;6.80;;;19.60;99.90;;;;;;5054307;28;20656;-73
2022/05/17 08:10:57;;;;;;;13.77;5.68;;;19.50;99.90;;;;;;5054143;28;20213;-73
2022/05/17 08:13:26;;;;;;;11.35;6.15;;;19.50;99.90;;;;;;5053912;28;20203;-73
2022/05/17 08:15:53;;;;;;;12.43;5.75;;;19.60;99.90;;;;;;5053910;28;20276;-73
2022/05/17 08:18:21;;;;;;;12.05;5.50;;;19.70;99.90;;;;;;5053481;28;20223;-73
2022/05/17 08:20:48;;;;;;;13.27;7.20;;;19.60;78.40;;;;;;5053462;28;20206;-72
2022/05/17 08:23:15;;;;;;;9.35;5.80;;;19.60;99.90;;;;;;5053956;28;20225;-72
2022/05/17 08:28:28;;;;;;;12.35;6.72;;;19.80;1.00;;;;;;5054310;28;20614;-72
2022/05/17 08:30:55;;;;;;;11.27;5.65;;;19.90;18.20;;;;;;5053833;28;20210;-72
2022/05/17 08:33:23;;;;;;;11.23;5.47;;;20.00;22.20;;;;;;5053943;28;20203;-73
2022/05/17 08:35:52;;;;;;;12.48;6.07;;;20.10;1.00;;;;;;5054113;28;20246;-72
2022/05/17 08:38:22;;;;;;;10.02;5.38;;;20.20;1.00;;;;;;5053612;28;20241;-72
2022/05/17 08:40:56;;;;;;;8.93;5.95;;;20.40;1.00;;;;;;5053564;28;20253;-73
2022/05/17 08:43:29;;;;;;;9.27;5.25;;;20.60;1.00;;;;;;5053840;28;20210;-72
2022/05/17 08:46:07;;;;;;;11.75;5.68;;;20.50;1.00;;;;;;5053088;28;20277;-72
2022/05/17 08:48:44;;;;;;;9.85;4.57;;;20.70;1.00;;;;;;5053072;28;20195;-72
2022/05/17 08:51:15;;;;;;;10.45;5.10;;;20.90;1.00;;;;;;5053687;28;20203;-72
2022/05/17 08:53:43;;;;;;;8.90;5.25;;;20.70;1.00;;;;;;5053179;28;20684;-72
2022/05/17 08:56:10;;;;;;;13.25;4.80;;;21.20;1.00;;;;;;5052857;28;20210;-72
2022/05/17 08:58:42;;;;;;;10.02;4.60;;;21.50;99.90;;;;;;5067878;28;20647;-72
2022/05/17 09:01:21;;;;;;;10.13;4.75;;;21.60;1.00;;;;;;5073597;28;20210;-73
2022/05/17 09:04:05;;;;;;;9.40;4.53;;;21.70;99.90;;;;;;5070755;28;20201;-72
2022/05/17 09:06:39;;;;;;;8.63;3.70;;;21.90;99.90;;;;;;5060456;28;20206;-73
2022/05/17 09:09:11;;;;;;;9.57;4.65;;;21.80;1.00;;;;;;5064598;28;20206;-73
2022/05/17 09:11:45;;;;;;;9.75;4.93;;;21.40;1.00;;;;;;5053062;28;20256;-72
2022/05/17 09:14:17;;;;;;;8.52;3.72;;;21.30;1.00;;;;;;5053778;28;20217;-73
2022/05/17 09:16:47;;;;;;;7.10;3.83;;;21.50;1.00;;;;;;5053226;28;20214;-73
2022/05/17 09:19:16;;;;;;;6.65;3.90;;;21.80;1.00;;;;;;5072579;28;20690;-72
2022/05/17 09:21:44;;;;;;;7.18;3.47;;;21.90;1.00;;;;;;5073305;28;20553;-72
2022/05/17 09:24:14;;;;;;;8.93;3.72;;;22.10;1.00;;;;;;5072126;28;20225;-72
2022/05/17 09:26:41;;;;;;;7.85;3.63;;;22.30;1.00;;;;;;5062291;28;20250;-72
2022/05/17 09:29:17;;;;;;;7.32;3.42;;;22.20;1.00;;;;;;5051924;28;20214;-72
2022/05/17 09:31:52;;;;;;;10.93;3.88;;;22.00;1.00;;;;;;5053422;28;20256;-72
2022/05/17 09:34:28;;;;;;;9.35;4.30;;;22.40;1.00;;;;;;5051998;28;20210;-72
2022/05/17 09:36:55;;;;;;;5.88;3.05;;;22.90;1.00;;;;;;5053037;28;20214;-73
2022/05/17 09:39:23;;;;;;;7.32;3.75;;;23.40;1.00;;;;;;5052554;28;20226;-72
2022/05/17 09:41:51;;;;;;;7.43;3.65;;;23.10;1.00;;;;;;5052897;28;20221;-73
2022/05/17 09:44:24;;;;;;;6.18;3.13;;;22.70;99.90;;;;;;5052286;28;20210;-73
2022/05/17 09:46:56;;;;;;;4.07;2.40;;;23.60;1.00;;;;;;5051589;28;20211;-73
2022/05/17 09:52:34;;;;;;;6.47;3.00;;;23.80;1.00;;;;;;5052741;28;20282;-73
2022/05/17 09:55:13;;;;;;;4.18;2.63;;;23.80;1.00;;;;;;5052299;28;20207;-72
2022/05/17 09:57:56;;;;;;;6.47;2.75;;;24.20;1.00;;;;;;5052519;28;20257;-72
2022/05/17 10:00:27;;;;;;;6.45;2.58;;;24.50;99.90;;;;;;5051834;28;20620;-73
2022/05/17 10:03:00;;;;;;;6.72;2.50;;;24.40;99.90;;;;;;5051966;28;20198;-72
2022/05/17 10:05:30;;;;;;;3.50;2.20;;;24.40;99.90;;;;;;5052099;28;20203;-72
2022/05/17 10:07:59;;;;;;;6.22;2.78;;;24.90;1.00;;;;;;5052797;28;20245;-73
2022/05/17 10:10:30;;;;;;;3.47;2.33;;;25.10;1.00;;;;;;5055075;28;20207;-72
2022/05/17 10:13:04;;;;;;;3.47;2.13;;;24.90;1.00;;;;;;5072198;28;20616;-72
2022/05/17 10:15:37;;;;;;;6.18;2.00;;;25.40;1.00;;;;;;5071127;28;20582;-72
2022/05/17 10:18:10;;;;;;;4.55;2.22;;;25.50;1.00;;;;;;5071514;28;20633;-72
2022/05/17 10:20:44;;;;;;;7.05;2.03;;;25.90;1.00;;;;;;5070672;28;20202;-73
2022/05/17 10:23:28;;;;;;;3.22;2.10;;;25.80;1.00;;;;;;5071677;28;20653;-72
2022/05/17 10:26:00;;;;;;;3.60;1.80;;;25.90;1.00;;;;;;5071303;28;20217;-73
2022/05/17 10:28:37;;;;;;;3.38;2.03;;;25.50;1.00;;;;;;5072340;28;20208;-73
2022/05/17 10:31:11;;;;;;;3.40;1.65;;;25.40;1.00;;;;;;5071907;28;20645;-73
2022/05/17 10:33:51;;;;;;;2.72;1.60;;;25.20;1.00;;;;;;5072174;28;20287;-72
2022/05/17 10:36:24;;;;;;;4.05;1.88;;;26.10;1.00;;;;;;5071523;28;20641;-73
2022/05/17 10:39:02;;;;;;;5.57;1.88;;;25.70;1.00;;;;;;5071555;28;20320;-73
2022/05/17 10:41:29;;;;;;;5.97;1.65;;;26.00;1.00;;;;;;5070496;28;20204;-73
2022/05/17 10:43:56;;;;;;;3.08;1.45;;;26.10;1.00;;;;;;5071380;28;20664;-73
2022/05/17 10:46:29;;;;;;;6.32;1.67;;;25.60;1.00;;;;;;5071894;28;20561;-73
2022/05/17 10:49:06;;;;;;;3.72;1.85;;;25.30;1.00;;;;;;5071367;28;20206;-73
2022/05/17 10:51:42;;;;;;;4.38;1.88;;;25.70;1.00;;;;;;5070670;28;20206;-73
2022/05/17 10:54:17;;;;;;;2.85;1.73;;;26.00;1.00;;;;;;5070930;28;20212;-72
2022/05/17 10:56:50;;;;;;;2.15;1.80;;;25.50;1.00;;;;;;5070838;28;20205;-72
2022/05/17 10:59:27;;;;;;;6.97;1.73;;;25.20;1.00;;;;;;5071370;28;20226;-73
2022/05/17 11:02:11;;;;;;;4.05;1.65;;;25.50;1.00;;;;;;5071154;28;20209;-72
2022/05/17 11:05:03;;;;;;;4.63;1.67;;;25.80;1.00;;;;;;5070941;28;20206;-72
2022/05/17 11:07:48;;;;;;;3.17;1.63;;;26.30;1.00;;;;;;5071989;28;20206;-72
2022/05/17 11:10:26;;;;;;;3.25;1.48;;;26.40;1.00;;;;;;5071057;28;20581;-73
2022/05/17 11:13:00;;;;;;;6.30;1.60;;;26.50;1.00;;;;;;5071100;28;20206;-73
2022/05/17 11:15:35;;;;;;;4.55;1.98;;;25.40;1.00;;;;;;5071091;28;20216;-73
2022/05/17 11:18:12;;;;;;;1.95;1.35;;;25.90;1.00;;;;;;5070765;28;20696;-73
2022/05/17 11:20:45;;;;;;;5.50;1.88;;;26.60;1.00;;;;;;5066802;28;20218;-73
2022/05/17 11:23:33;;;;;;;2.53;1.20;;;27.30;1.00;;;;;;5071552;28;20202;-73
2022/05/17 11:26:25;;;;;;;2.00;1.42;;;26.30;1.00;;;;;;5065402;28;20605;-73
2022/05/17 11:29:07;;;;;;;5.90;1.60;;;25.60;1.00;;;;;;5051506;28;20205;-73
2022/05/17 11:31:55;;;;;;;3.75;1.83;;;25.60;1.00;;;;;;5051853;28;20584;-73
2022/05/17 11:34:32;;;;;;;4.72;1.95;;;25.70;1.00;;;;;;5052392;28;20261;-73
2022/05/17 11:37:02;;;;;;;4.00;1.67;;;25.90;1.00;;;;;;5062389;28;20214;-73
2022/05/17 11:39:50;;;;;;;7.30;2.55;;;25.80;1.00;;;;;;5074381;28;20585;-73
2022/05/17 11:42:29;;;;;;;3.60;1.88;;;25.60;1.00;;;;;;5073146;28;20191;-73
2022/05/17 11:45:16;;;;;;;2.83;1.77;;;25.70;1.00;;;;;;5071525;28;20205;-73
2022/05/17 11:47:50;;;;;;;3.85;2.38;;;25.30;1.00;;;;;;5075375;28;20202;-72
2022/05/17 11:50:43;;;;;;;8.10;2.58;;;25.90;1.00;;;;;;5074875;28;20202;-72
2022/05/17 11:53:46;;;;;;;3.67;2.08;;;26.30;1.00;;;;;;5056942;28;20214;-72
2022/05/17 11:56:21;;;;;;;2.65;1.55;;;25.30;1.00;;;;;;5073121;28;20204;-73
2022/05/17 11:58:50;;;;;;;4.05;1.77;;;26.00;1.00;;;;;;5072912;28;20244;-74
2022/05/17 12:01:43;;;;;;;3.97;1.67;;;26.40;1.00;;;;;;5053568;28;20209;-73
2022/05/17 12:04:42;;;;;;;4.38;1.88;;;25.70;1.00;;;;;;5054832;28;20653;-73
2022/05/17 12:07:29;;;;;;;4.57;1.52;;;25.00;1.00;;;;;;5054010;28;20571;-72
2022/05/17 12:09:58;;;;;;;3.22;1.42;;;26.50;1.00;;;;;;5054006;28;20195;-73
2022/05/17 12:12:36;;;;;;;4.72;1.88;;;26.50;1.00;;;;;;5054708;28;20571;-73
2022/05/17 12:15:39;;;;;;;4.13;2.00;;;25.40;1.00;;;;;;5054811;28;20710;-73
2022/05/17 12:18:31;;;;;;;3.40;2.13;;;26.80;1.00;;;;;;5054406;28;20228;-74
2022/05/17 12:21:27;;;;;;;4.28;1.95;;;27.00;1.00;;;;;;5054096;28;20234;-74
2022/05/17 12:24:00;;;;;;;3.53;2.33;;;27.20;1.00;;;;;;5049896;28;20253;-73
2022/05/17 12:26:38;;;;;;;4.97;1.92;;;27.00;1.00;;;;;;5054333;28;20210;-73
2022/05/17 12:31:48;;;;;;;4.88;1.90;;;26.10;1.00;;;;;;5053740;28;20199;-73
2022/05/17 12:34:15;;;;;;;4.65;2.10;;;26.40;1.00;;;;;;5053273;28;20207;-73
2022/05/17 12:36:42;;;;;;;6.38;1.75;;;26.60;1.00;;;;;;5054328;28;20576;-73
2022/05/17 12:45:01;;;;;;;4.03;2.40;;;26.60;1.00;;;;;;4992361;28;20502;-73
2022/05/17 12:47:31;;;;;;;4.95;1.70;;;26.50;1.00;;;;;;5032051;28;20618;-73
2022/05/17 12:49:59;;;;;;;3.90;1.63;;;26.00;1.00;;;;;;5063047;28;20198;-73
2022/05/17 12:52:31;;;;;;;3.20;1.50;;;26.80;1.00;;;;;;5056567;28;20210;-74
2022/05/17 12:55:03;;;;;;;3.28;1.45;;;26.50;1.00;;;;;;5060930;28;20199;-74
2022/05/17 12:57:34;;;;;;;2.97;1.83;;;26.70;1.00;;;;;;5068450;28;20689;-73
2022/05/17 13:00:11;;;;;;;2.40;1.63;;;26.70;1.00;;;;;;5062966;28;20316;-73
2022/05/17 13:02:43;;;;;;;1.65;1.40;;;26.30;1.00;;;;;;5070898;28;20206;-73
2022/05/17 13:05:31;;;;;;;4.00;1.85;;;26.70;1.00;;;;;;5061733;28;20229;-73
2022/05/17 13:08:04;;;;;;;5.13;1.52;;;26.30;1.00;;;;;;5066028;28;20203;-74
2022/05/17 13:10:34;;;;;;;3.67;1.67;;;26.50;1.00;;;;;;5066400;28;20199;-73